createdAt,value
2023-01-29T00:00:09.555Z,7.24
2023-01-29T00:01:12.092Z,6.87
2023-01-29T00:02:14.676Z,6.51
2023-01-29T00:03:17.526Z,6.34
2023-01-29T00:04:20.271Z,6.78
2023-01-29T00:05:29.992Z,6.23
2023-01-29T00:06:27.352Z,7.43
2023-01-29T00:07:29.893Z,6.35
2023-01-29T00:08:32.431Z,7.01
2023-01-29T00:09:35.077Z,7.03
2023-01-29T00:10:38.033Z,6.03
2023-01-29T00:11:40.573Z,6.86
2023-01-29T00:12:43.114Z,6.51
2023-01-29T00:13:45.655Z,7.13
2023-01-29T00:14:48.199Z,7.28
2023-01-29T00:15:50.733Z,7.53
2023-01-29T00:16:53.554Z,8.19
2023-01-29T00:17:56.082Z,8.37
2023-01-29T00:18:58.652Z,7.35
2023-01-29T00:20:01.203Z,7.03
2023-01-29T00:21:03.947Z,8.37
2023-01-29T00:22:06.498Z,7.63
2023-01-29T00:23:09.020Z,8.95
2023-01-29T00:24:11.585Z,7.19
2023-01-29T00:25:14.188Z,7.28
2023-01-29T00:26:16.834Z,7.97
2023-01-29T00:27:19.365Z,6.64
2023-01-29T00:28:21.906Z,7.57
2023-01-29T00:29:24.348Z,7.44
2023-01-29T00:30:27.305Z,6.64
2023-01-29T00:31:29.995Z,7.75
2023-01-29T00:32:32.571Z,6.89
2023-01-29T00:33:35.005Z,6.91
2023-01-29T00:34:37.538Z,7.11
2023-01-29T00:35:40.104Z,6.83
2023-01-29T00:36:43.253Z,7.21
2023-01-29T00:37:45.786Z,6.90
2023-01-29T00:38:48.223Z,6.76
2023-01-29T00:39:50.758Z,7.18
2023-01-29T00:40:53.665Z,7.62
2023-01-29T00:41:56.180Z,7.11
2023-01-29T00:42:58.711Z,8.31
2023-01-29T00:44:01.318Z,7.77
2023-01-29T00:45:03.803Z,9.05
2023-01-29T00:46:06.996Z,7.99
2023-01-29T00:47:09.550Z,7.49
2023-01-29T00:48:12.069Z,8.07
2023-01-29T00:49:14.605Z,9.45
2023-01-29T00:50:17.696Z,7.49
2023-01-29T00:51:20.638Z,7.33
2023-01-29T00:52:23.169Z,7.02
2023-01-29T00:53:25.703Z,7.18
2023-01-29T00:54:28.236Z,7.49
2023-01-29T00:55:30.775Z,7.81
2023-01-29T00:56:33.650Z,7.33
2023-01-29T00:57:36.185Z,6.78
2023-01-29T00:58:38.713Z,7.93
2023-01-29T00:59:41.255Z,6.97
2023-01-29T01:00:44.176Z,6.80
2023-01-29T01:01:47.253Z,7.11
2023-01-29T01:02:49.734Z,7.27
2023-01-29T01:03:52.273Z,7.23
2023-01-29T01:04:54.796Z,8.59
2023-01-29T01:05:57.346Z,6.74
2023-01-29T01:06:59.981Z,7.75
2023-01-29T01:08:02.514Z,7.07
2023-01-29T01:09:05.050Z,7.09
2023-01-29T01:10:08.899Z,8.04
2023-01-29T01:11:11.425Z,8.84
2023-01-29T01:12:13.980Z,7.53
2023-01-29T01:13:16.507Z,7.43
2023-01-29T01:14:19.046Z,7.33
2023-01-29T01:15:21.609Z,7.64
2023-01-29T01:16:24.367Z,7.14
2023-01-29T01:17:26.981Z,7.02
2023-01-29T01:18:29.509Z,7.64
2023-01-29T01:19:32.061Z,7.50
2023-01-29T01:20:34.696Z,8.73
2023-01-29T01:21:37.220Z,9.99
2023-01-29T01:22:39.781Z,8.40
2023-01-29T01:23:42.299Z,6.63
2023-01-29T01:24:44.743Z,8.29
2023-01-29T01:25:47.277Z,8.25
2023-01-29T01:26:50.125Z,6.90
2023-01-29T01:27:52.695Z,7.35
2023-01-29T01:28:55.231Z,7.93
2023-01-29T01:29:57.765Z,7.57
2023-01-29T01:31:00.894Z,7.34
2023-01-29T01:32:03.534Z,7.82
2023-01-29T01:33:06.148Z,9.02
2023-01-29T01:34:08.594Z,8.60
2023-01-29T01:35:11.129Z,7.97
2023-01-29T01:36:14.161Z,10.16
2023-01-29T01:37:16.685Z,8.59
2023-01-29T01:38:19.261Z,8.54
2023-01-29T01:39:21.794Z,7.80
2023-01-29T01:40:24.545Z,7.83
2023-01-29T01:41:27.059Z,7.98
2023-01-29T01:42:29.614Z,7.57
2023-01-29T01:43:32.185Z,11.02
2023-01-29T01:44:34.712Z,11.89
2023-01-29T01:45:37.319Z,12.09
2023-01-29T01:46:40.197Z,10.32
2023-01-29T01:47:42.733Z,11.32
2023-01-29T01:48:45.296Z,10.49
2023-01-29T01:49:47.834Z,9.12
2023-01-29T01:50:50.923Z,7.12
2023-01-29T01:51:53.417Z,10.09
2023-01-29T01:52:55.951Z,6.82
2023-01-29T01:53:58.488Z,8.31
2023-01-29T01:55:01.494Z,7.93
2023-01-29T01:56:04.209Z,7.72
2023-01-29T01:57:06.739Z,7.41
2023-01-29T01:58:09.276Z,7.83
2023-01-29T01:59:11.812Z,7.38
2023-01-29T02:00:15.090Z,7.37
2023-01-29T02:01:17.956Z,6.58
2023-01-29T02:02:20.451Z,7.52
2023-01-29T02:03:22.972Z,7.83
2023-01-29T02:04:25.543Z,7.53
2023-01-29T02:05:28.079Z,7.85
2023-01-29T02:06:30.918Z,7.26
2023-01-29T02:07:33.479Z,7.47
2023-01-29T02:08:35.991Z,8.01
2023-01-29T02:09:38.544Z,8.39
2023-01-29T02:10:41.265Z,8.34
2023-01-29T02:11:43.812Z,7.93
2023-01-29T02:12:46.332Z,7.31
2023-01-29T02:13:48.861Z,7.77
2023-01-29T02:14:51.417Z,7.41
2023-01-29T02:15:53.937Z,8.16
2023-01-29T02:16:56.671Z,7.41
2023-01-29T02:17:59.108Z,7.63
2023-01-29T02:19:01.667Z,7.85
2023-01-29T02:20:04.402Z,8.07
2023-01-29T02:21:06.931Z,7.47
2023-01-29T02:22:09.466Z,7.79
2023-01-29T02:23:12.003Z,7.99
2023-01-29T02:24:14.671Z,7.90
2023-01-29T02:25:17.490Z,8.11
2023-01-29T02:26:20.109Z,7.91
2023-01-29T02:27:22.643Z,7.43
2023-01-29T02:28:25.186Z,7.77
2023-01-29T02:29:27.618Z,7.90
2023-01-29T02:30:30.456Z,8.01
2023-01-29T02:31:33.035Z,7.83
2023-01-29T02:32:35.834Z,7.86
2023-01-29T02:33:38.374Z,8.10
2023-01-29T02:34:40.901Z,7.58
2023-01-29T02:35:43.438Z,7.90
2023-01-29T02:36:46.077Z,8.31
2023-01-29T02:37:48.605Z,8.07
2023-01-29T02:38:51.041Z,8.02
2023-01-29T02:39:53.589Z,8.51
2023-01-29T02:40:56.280Z,7.57
2023-01-29T02:41:58.829Z,9.13
2023-01-29T02:43:01.358Z,8.05
2023-01-29T02:44:03.911Z,8.75
2023-01-29T02:45:06.431Z,8.20
2023-01-29T02:46:09.567Z,8.61
2023-01-29T02:47:12.245Z,8.43
2023-01-29T02:48:14.793Z,8.26
2023-01-29T02:49:17.329Z,7.65
2023-01-29T02:50:19.965Z,7.48
2023-01-29T02:51:22.542Z,8.03
2023-01-29T02:52:25.082Z,8.45
2023-01-29T02:53:27.617Z,8.25
2023-01-29T02:54:30.153Z,8.00
2023-01-29T02:55:32.697Z,8.27
2023-01-29T02:56:35.364Z,8.01
2023-01-29T02:57:37.913Z,7.87
2023-01-29T02:58:40.621Z,7.66
2023-01-29T02:59:43.154Z,7.56
2023-01-29T03:00:45.819Z,8.10
2023-01-29T03:01:48.462Z,8.33
2023-01-29T03:02:50.997Z,8.25
2023-01-29T03:03:53.551Z,7.66
2023-01-29T03:04:56.085Z,8.03
2023-01-29T03:05:58.629Z,8.09
2023-01-29T03:07:01.545Z,8.91
2023-01-29T03:08:04.039Z,9.51
2023-01-29T03:09:06.575Z,9.03
2023-01-29T03:10:10.126Z,8.04
2023-01-29T03:11:12.661Z,8.89
2023-01-29T03:12:15.251Z,9.63
2023-01-29T03:13:17.778Z,7.32
2023-01-29T03:14:20.321Z,7.89
2023-01-29T03:15:22.853Z,7.65
2023-01-29T03:16:25.501Z,8.19
2023-01-29T03:17:28.065Z,7.57
2023-01-29T03:18:30.612Z,7.99
2023-01-29T03:19:33.152Z,8.13
2023-01-29T03:20:35.892Z,8.13
2023-01-29T03:21:38.426Z,8.40
2023-01-29T03:22:41.270Z,7.45
2023-01-29T03:23:43.826Z,7.47
2023-01-29T03:24:46.376Z,7.78
2023-01-29T03:25:48.881Z,8.19
2023-01-29T03:26:51.822Z,7.43
2023-01-29T03:27:54.417Z,8.33
2023-01-29T03:28:57.400Z,8.79
2023-01-29T03:29:59.834Z,8.25
2023-01-29T03:31:02.403Z,8.64
2023-01-29T03:32:04.925Z,8.05
2023-01-29T03:33:07.580Z,8.98
2023-01-29T03:34:10.125Z,8.33
2023-01-29T03:35:12.564Z,9.89
2023-01-29T03:36:15.361Z,7.53
2023-01-29T03:37:17.885Z,10.92
2023-01-29T03:38:20.478Z,23.07
2023-01-29T03:39:22.985Z,33.99
2023-01-29T03:40:25.634Z,31.15
2023-01-29T03:41:28.171Z,33.24
2023-01-29T03:42:30.707Z,32.05
2023-01-29T03:43:33.278Z,25.36
2023-01-29T03:44:35.817Z,19.26
2023-01-29T03:45:38.389Z,15.87
2023-01-29T03:46:41.392Z,13.51
2023-01-29T03:47:44.217Z,11.10
2023-01-29T03:48:46.795Z,9.73
2023-01-29T03:49:49.344Z,10.09
2023-01-29T03:50:51.983Z,12.26
2023-01-29T03:51:54.570Z,8.93
2023-01-29T03:52:57.097Z,11.51
2023-01-29T03:53:59.667Z,9.20
2023-01-29T03:55:02.213Z,10.03
2023-01-29T03:56:04.948Z,10.74
2023-01-29T03:57:07.480Z,10.72
2023-01-29T03:58:10.020Z,9.32
2023-01-29T03:59:12.611Z,8.41
2023-01-29T04:00:15.859Z,8.99
2023-01-29T04:01:20.257Z,8.19
2023-01-29T04:02:22.858Z,8.83
2023-01-29T04:03:25.399Z,8.73
2023-01-29T04:04:28.012Z,8.10
2023-01-29T04:05:30.625Z,8.22
2023-01-29T04:06:33.558Z,8.01
2023-01-29T04:07:36.107Z,7.49
2023-01-29T04:08:38.625Z,8.07
2023-01-29T04:09:41.344Z,8.27
2023-01-29T04:10:43.990Z,7.90
2023-01-29T04:11:46.545Z,7.11
2023-01-29T04:12:49.079Z,7.61
2023-01-29T04:13:51.612Z,7.63
2023-01-29T04:14:54.160Z,7.73
2023-01-29T04:15:56.695Z,8.69
2023-01-29T04:16:59.644Z,8.24
2023-01-29T04:18:02.182Z,8.34
2023-01-29T04:19:04.745Z,8.73
2023-01-29T04:20:07.678Z,9.23
2023-01-29T04:21:10.226Z,9.21
2023-01-29T04:22:12.717Z,8.98
2023-01-29T04:23:15.242Z,8.76
2023-01-29T04:24:17.818Z,8.68
2023-01-29T04:25:20.414Z,8.51
2023-01-29T04:26:23.067Z,8.55
2023-01-29T04:27:25.606Z,8.32
2023-01-29T04:28:28.143Z,8.83
2023-01-29T04:29:30.674Z,7.83
2023-01-29T04:30:33.508Z,9.03
2023-01-29T04:31:36.234Z,8.48
2023-01-29T04:32:38.833Z,8.33
2023-01-29T04:33:41.380Z,8.69
2023-01-29T04:34:43.904Z,8.47
2023-01-29T04:35:46.438Z,9.11
2023-01-29T04:36:49.197Z,9.04
2023-01-29T04:37:51.770Z,9.34
2023-01-29T04:38:54.326Z,8.43
2023-01-29T04:39:56.843Z,8.19
2023-01-29T04:40:59.503Z,7.74
2023-01-29T04:42:02.018Z,9.26
2023-01-29T04:43:04.612Z,7.55
2023-01-29T04:44:07.148Z,8.86
2023-01-29T04:45:09.710Z,11.56
2023-01-29T04:46:12.525Z,8.33
2023-01-29T04:47:15.086Z,9.82
2023-01-29T04:48:17.641Z,9.46
2023-01-29T04:49:20.189Z,8.07
2023-01-29T04:50:22.927Z,8.09
2023-01-29T04:51:25.467Z,8.25
2023-01-29T04:52:28.011Z,7.58
2023-01-29T04:53:30.581Z,8.01
2023-01-29T04:54:33.118Z,9.01
2023-01-29T04:55:35.653Z,8.35
2023-01-29T04:56:38.587Z,9.51
2023-01-29T04:57:41.122Z,9.54
2023-01-29T04:58:43.607Z,9.30
2023-01-29T04:59:46.134Z,9.77
2023-01-29T05:00:48.996Z,8.86
2023-01-29T05:01:51.449Z,10.12
2023-01-29T05:02:54.051Z,9.49
2023-01-29T05:03:56.734Z,8.95
2023-01-29T05:04:59.278Z,9.72
2023-01-29T05:06:01.804Z,9.48
2023-01-29T05:07:04.443Z,9.45
2023-01-29T05:08:06.966Z,9.93
2023-01-29T05:09:09.562Z,10.63
2023-01-29T05:10:13.871Z,10.59
2023-01-29T05:11:16.627Z,9.90
2023-01-29T05:12:19.073Z,10.74
2023-01-29T05:13:21.593Z,10.23
2023-01-29T05:14:24.063Z,13.05
2023-01-29T05:15:26.606Z,9.25
2023-01-29T05:16:29.341Z,9.74
2023-01-29T05:17:31.885Z,9.31
2023-01-29T05:18:34.419Z,9.59
2023-01-29T05:19:36.954Z,9.75
2023-01-29T05:20:39.975Z,9.46
2023-01-29T05:21:42.438Z,9.36
2023-01-29T05:22:44.968Z,8.35
2023-01-29T05:23:47.816Z,9.31
2023-01-29T05:24:50.399Z,8.94
2023-01-29T05:25:52.930Z,10.02
2023-01-29T05:26:56.387Z,9.96
2023-01-29T05:27:58.918Z,9.38
2023-01-29T05:29:01.449Z,8.90
2023-01-29T05:30:04.091Z,8.88
2023-01-29T05:31:06.713Z,10.85
2023-01-29T05:32:09.469Z,10.98
2023-01-29T05:33:11.997Z,11.36
2023-01-29T05:34:14.523Z,10.87
2023-01-29T05:35:16.959Z,9.62
2023-01-29T05:36:19.794Z,10.16
2023-01-29T05:37:22.327Z,10.01
2023-01-29T05:38:24.875Z,9.67
2023-01-29T05:39:27.410Z,10.75
2023-01-29T05:40:30.149Z,9.95
2023-01-29T05:41:32.684Z,11.30
2023-01-29T05:42:35.223Z,10.87
2023-01-29T05:43:37.755Z,10.11
2023-01-29T05:44:40.287Z,11.67
2023-01-29T05:45:42.820Z,10.73
2023-01-29T05:46:45.575Z,10.93
2023-01-29T05:47:48.097Z,11.62
2023-01-29T05:48:50.629Z,11.63
2023-01-29T05:49:53.064Z,11.89
2023-01-29T05:50:55.897Z,11.25
2023-01-29T05:51:58.433Z,11.94
2023-01-29T05:53:00.894Z,11.28
2023-01-29T05:54:03.417Z,10.43
2023-01-29T05:55:05.954Z,11.10
2023-01-29T05:56:09.302Z,10.76
2023-01-29T05:57:11.856Z,10.65
2023-01-29T05:58:14.408Z,10.23
2023-01-29T05:59:16.921Z,11.13
2023-01-29T06:00:19.664Z,12.36
2023-01-29T06:01:22.200Z,11.97
2023-01-29T06:02:24.732Z,10.79
2023-01-29T06:03:27.287Z,11.02
2023-01-29T06:04:29.829Z,12.57
2023-01-29T06:05:32.361Z,12.03
2023-01-29T06:06:35.015Z,10.97
2023-01-29T06:07:37.541Z,10.95
2023-01-29T06:08:40.076Z,12.54
2023-01-29T06:09:42.660Z,11.44
2023-01-29T06:10:45.393Z,12.31
2023-01-29T06:11:47.927Z,12.22
2023-01-29T06:12:50.464Z,11.55
2023-01-29T06:13:53.017Z,11.32
2023-01-29T06:14:55.575Z,12.95
2023-01-29T06:15:58.049Z,10.51
2023-01-29T06:17:01.155Z,12.32
2023-01-29T06:18:04.016Z,11.44
2023-01-29T06:19:06.530Z,12.46
2023-01-29T06:20:10.112Z,12.28
2023-01-29T06:21:12.654Z,12.03
2023-01-29T06:22:15.177Z,12.79
2023-01-29T06:23:17.653Z,12.77
2023-01-29T06:24:20.185Z,12.98
2023-01-29T06:25:22.845Z,12.36
2023-01-29T06:26:25.743Z,11.35
2023-01-29T06:27:28.302Z,12.55
2023-01-29T06:28:30.827Z,11.16
2023-01-29T06:29:33.374Z,12.38
2023-01-29T06:30:36.147Z,11.48
2023-01-29T06:31:39.694Z,11.97
2023-01-29T06:32:42.746Z,13.93
2023-01-29T06:33:45.335Z,11.71
2023-01-29T06:34:49.708Z,11.99
2023-01-29T06:35:52.281Z,14.20
2023-01-29T06:36:54.908Z,12.41
2023-01-29T06:37:57.440Z,13.39
2023-01-29T06:39:00.009Z,11.33
2023-01-29T06:40:02.845Z,13.32
2023-01-29T06:41:05.395Z,10.93
2023-01-29T06:42:07.928Z,11.23
2023-01-29T06:43:10.360Z,14.01
2023-01-29T06:44:12.900Z,12.25
2023-01-29T06:45:15.755Z,12.52
2023-01-29T06:46:18.588Z,11.32
2023-01-29T06:47:21.132Z,11.83
2023-01-29T06:48:23.662Z,12.36
2023-01-29T06:49:26.203Z,11.76
2023-01-29T06:50:28.932Z,13.11
2023-01-29T06:51:31.528Z,12.09
2023-01-29T06:52:34.081Z,11.45
2023-01-29T06:53:36.606Z,15.11
2023-01-29T06:54:39.144Z,11.62
2023-01-29T06:55:41.679Z,12.65
2023-01-29T06:56:44.209Z,11.87
2023-01-29T06:57:46.795Z,12.19
2023-01-29T06:58:49.332Z,11.09
2023-01-29T06:59:51.863Z,11.01
2023-01-29T07:00:54.742Z,12.22
2023-01-29T07:01:57.460Z,11.37
2023-01-29T07:03:00.166Z,11.29
2023-01-29T07:04:02.807Z,12.24
2023-01-29T07:05:05.362Z,12.03
2023-01-29T07:06:08.745Z,13.27
2023-01-29T07:07:11.280Z,12.75
2023-01-29T07:08:13.897Z,12.53
2023-01-29T07:09:16.437Z,12.71
2023-01-29T07:10:19.361Z,13.78
2023-01-29T07:11:22.040Z,15.18
2023-01-29T07:12:24.608Z,14.02
2023-01-29T07:13:27.190Z,12.55
2023-01-29T07:14:29.628Z,13.60
2023-01-29T07:15:32.184Z,14.48
2023-01-29T07:16:35.667Z,12.96
2023-01-29T07:17:38.361Z,15.64
2023-01-29T07:18:40.963Z,13.03
2023-01-29T07:19:43.516Z,12.91
2023-01-29T07:20:46.410Z,13.83
2023-01-29T07:21:48.947Z,13.07
2023-01-29T07:22:51.482Z,12.71
2023-01-29T07:23:54.144Z,12.62
2023-01-29T07:24:56.804Z,13.38
2023-01-29T07:25:59.352Z,12.49
2023-01-29T07:27:02.408Z,13.06
2023-01-29T07:28:04.965Z,13.02
2023-01-29T07:29:07.569Z,13.43
2023-01-29T07:30:10.931Z,13.57
2023-01-29T07:31:13.582Z,14.27
2023-01-29T07:32:16.152Z,13.29
2023-01-29T07:33:18.922Z,11.98
2023-01-29T07:34:21.503Z,13.56
2023-01-29T07:35:24.033Z,12.51
2023-01-29T07:36:26.684Z,10.90
2023-01-29T07:37:29.215Z,12.07
2023-01-29T07:38:31.749Z,12.45
2023-01-29T07:39:34.324Z,14.13
2023-01-29T07:40:37.072Z,12.93
2023-01-29T07:41:39.602Z,13.25
2023-01-29T07:42:42.164Z,14.63
2023-01-29T07:43:44.675Z,15.57
2023-01-29T07:44:47.246Z,15.49
2023-01-29T07:45:49.815Z,15.85
2023-01-29T07:46:52.517Z,15.40
2023-01-29T07:47:55.054Z,15.43
2023-01-29T07:48:57.592Z,13.62
2023-01-29T07:50:00.173Z,13.33
2023-01-29T07:51:02.709Z,13.12
2023-01-29T07:52:05.245Z,14.01
2023-01-29T07:53:07.785Z,13.97
2023-01-29T07:54:10.334Z,12.57
2023-01-29T07:55:12.905Z,13.78
2023-01-29T07:56:15.655Z,14.13
2023-01-29T07:57:18.175Z,13.53
2023-01-29T07:58:20.708Z,14.55
2023-01-29T07:59:23.245Z,15.44
2023-01-29T08:00:26.034Z,13.03
2023-01-29T08:01:28.686Z,12.97
2023-01-29T08:02:31.260Z,13.79
2023-01-29T08:03:33.755Z,12.79
2023-01-29T08:04:36.197Z,14.98
2023-01-29T08:05:38.771Z,14.62
2023-01-29T08:06:41.719Z,15.41
2023-01-29T08:07:49.233Z,12.42
2023-01-29T08:08:48.615Z,13.09
2023-01-29T08:09:51.158Z,15.67
2023-01-29T08:10:53.938Z,16.36
2023-01-29T08:11:56.495Z,14.69
2023-01-29T08:12:59.029Z,12.87
2023-01-29T08:14:01.588Z,15.38
2023-01-29T08:15:04.095Z,14.34
2023-01-29T08:16:07.409Z,13.36
2023-01-29T08:17:09.943Z,13.21
2023-01-29T08:18:12.458Z,12.37
2023-01-29T08:19:14.991Z,13.21
2023-01-29T08:20:18.272Z,16.24
2023-01-29T08:21:21.238Z,12.84
2023-01-29T08:22:23.753Z,12.59
2023-01-29T08:23:26.289Z,13.92
2023-01-29T08:24:41.482Z,14.84
2023-01-29T08:25:33.242Z,12.86
2023-01-29T08:26:36.470Z,13.43
2023-01-29T08:27:39.012Z,12.45
2023-01-29T08:28:41.556Z,11.25
2023-01-29T08:29:44.090Z,13.18
2023-01-29T08:30:47.056Z,12.31
2023-01-29T08:31:50.236Z,13.48
2023-01-29T08:32:53.032Z,11.88
2023-01-29T08:33:55.589Z,13.87
2023-01-29T08:34:58.125Z,13.27
2023-01-29T08:36:00.660Z,12.22
2023-01-29T08:37:03.230Z,13.43
2023-01-29T08:38:05.771Z,11.92
2023-01-29T08:39:08.303Z,12.88
2023-01-29T08:40:11.341Z,14.05
2023-01-29T08:41:13.891Z,12.62
2023-01-29T08:42:16.491Z,13.20
2023-01-29T08:43:19.023Z,13.37
2023-01-29T08:44:21.559Z,13.85
2023-01-29T08:45:24.104Z,14.08
2023-01-29T08:46:26.736Z,16.47
2023-01-29T08:47:29.818Z,15.30
2023-01-29T08:48:34.100Z,13.65
2023-01-29T08:49:36.692Z,12.48
2023-01-29T08:50:39.635Z,11.80
2023-01-29T08:51:42.178Z,11.79
2023-01-29T08:52:44.770Z,13.19
2023-01-29T08:53:47.397Z,12.98
2023-01-29T08:54:49.933Z,11.68
2023-01-29T08:55:52.506Z,12.75
2023-01-29T08:56:55.358Z,11.54
2023-01-29T08:57:57.941Z,12.39
2023-01-29T08:59:00.478Z,12.55
2023-01-29T09:00:03.349Z,13.69
2023-01-29T09:01:05.870Z,11.64
2023-01-29T09:02:08.419Z,11.99
2023-01-29T09:03:10.978Z,12.02
2023-01-29T09:04:13.519Z,11.77
2023-01-29T09:05:16.422Z,12.37
2023-01-29T09:06:19.720Z,12.01
2023-01-29T09:07:22.252Z,11.61
2023-01-29T09:08:24.837Z,12.69
2023-01-29T09:09:27.386Z,12.62
2023-01-29T09:10:30.034Z,11.95
2023-01-29T09:11:32.570Z,13.12
2023-01-29T09:12:35.138Z,12.03
2023-01-29T09:13:37.729Z,11.92
2023-01-29T09:14:40.282Z,12.88
2023-01-29T09:15:42.827Z,12.87
2023-01-29T09:16:45.486Z,11.63
2023-01-29T09:17:48.003Z,14.23
2023-01-29T09:18:50.625Z,15.79
2023-01-29T09:19:53.192Z,13.00
2023-01-29T09:20:55.864Z,13.71
2023-01-29T09:21:58.406Z,14.11
2023-01-29T09:23:00.930Z,12.24
2023-01-29T09:24:03.504Z,13.15
2023-01-29T09:25:06.037Z,13.39
2023-01-29T09:26:09.212Z,13.49
2023-01-29T09:27:11.715Z,12.27
2023-01-29T09:28:14.247Z,12.63
2023-01-29T09:29:16.832Z,13.11
2023-01-29T09:30:19.472Z,12.72
2023-01-29T09:31:22.062Z,11.39
2023-01-29T09:32:52.168Z,12.31
2023-01-29T09:33:28.975Z,12.15
2023-01-29T09:34:31.561Z,12.59
2023-01-29T09:35:34.092Z,12.18
2023-01-29T09:36:36.731Z,11.69
2023-01-29T09:37:39.266Z,12.04
2023-01-29T09:38:41.789Z,11.33
2023-01-29T09:39:44.274Z,11.47
2023-01-29T09:40:47.109Z,10.76
2023-01-29T09:41:49.759Z,11.79
2023-01-29T09:42:52.298Z,12.01
2023-01-29T09:43:54.822Z,11.79
2023-01-29T09:44:57.334Z,10.57
2023-01-29T09:45:59.907Z,11.78
2023-01-29T09:47:02.513Z,11.36
2023-01-29T09:48:05.038Z,11.59
2023-01-29T09:49:07.571Z,12.35
2023-01-29T09:50:10.864Z,11.16
2023-01-29T09:51:13.401Z,12.07
2023-01-29T09:52:15.943Z,11.17
2023-01-29T09:53:18.471Z,13.37
2023-01-29T09:54:21.005Z,12.71
2023-01-29T09:55:23.596Z,13.35
2023-01-29T09:56:26.232Z,12.61
2023-01-29T09:57:28.775Z,11.95
2023-01-29T09:58:31.310Z,11.29
2023-01-29T09:59:33.859Z,13.35
2023-01-29T10:00:36.638Z,11.63
2023-01-29T10:01:39.163Z,12.89
2023-01-29T10:02:41.931Z,12.68
2023-01-29T10:03:44.460Z,14.27
2023-01-29T10:04:47.032Z,14.07
2023-01-29T10:05:49.565Z,13.27
2023-01-29T10:06:52.317Z,13.62
2023-01-29T10:07:54.835Z,12.21
2023-01-29T10:08:57.382Z,13.81
2023-01-29T10:09:59.915Z,13.34
2023-01-29T10:11:02.487Z,13.43
2023-01-29T10:12:05.013Z,12.47
2023-01-29T10:13:07.561Z,12.04
2023-01-29T10:14:10.078Z,13.04
2023-01-29T10:15:12.607Z,10.66
2023-01-29T10:16:15.813Z,13.89
2023-01-29T10:17:18.420Z,13.16
2023-01-29T10:18:21.213Z,12.23
2023-01-29T10:19:23.742Z,15.46
2023-01-29T10:20:26.679Z,12.93
2023-01-29T10:21:29.259Z,11.55
2023-01-29T10:22:31.793Z,12.33
2023-01-29T10:23:35.016Z,12.23
2023-01-29T10:24:37.659Z,12.30
2023-01-29T10:25:40.193Z,15.87
2023-01-29T10:26:43.143Z,11.91
2023-01-29T10:27:45.698Z,15.11
2023-01-29T10:28:48.230Z,12.60
2023-01-29T10:29:50.782Z,12.81
2023-01-29T10:30:53.580Z,13.49
2023-01-29T10:31:56.553Z,12.41
2023-01-29T10:32:59.337Z,12.54
2023-01-29T10:34:03.065Z,11.79
2023-01-29T10:35:05.714Z,12.22
2023-01-29T10:36:10.287Z,13.54
2023-01-29T10:37:12.843Z,11.97
2023-01-29T10:38:15.378Z,12.85
2023-01-29T10:39:17.927Z,13.14
2023-01-29T10:40:21.080Z,12.28
2023-01-29T10:41:23.612Z,14.51
2023-01-29T10:42:26.206Z,14.15
2023-01-29T10:43:28.719Z,13.92
2023-01-29T10:44:31.259Z,12.97
2023-01-29T10:45:33.805Z,10.91
2023-01-29T10:46:36.535Z,14.63
2023-01-29T10:47:39.161Z,13.79
2023-01-29T10:48:42.031Z,11.98
2023-01-29T10:49:44.504Z,12.58
2023-01-29T10:50:47.145Z,12.25
2023-01-29T10:51:49.672Z,12.07
2023-01-29T10:52:52.156Z,13.83
2023-01-29T10:53:54.698Z,13.72
2023-01-29T10:54:57.244Z,13.84
2023-01-29T10:56:00.418Z,11.97
2023-01-29T10:57:03.825Z,16.42
2023-01-29T10:58:06.419Z,12.49
2023-01-29T10:59:08.935Z,11.99
2023-01-29T11:00:12.178Z,12.56
2023-01-29T11:01:14.799Z,14.47
2023-01-29T11:02:17.612Z,14.78
2023-01-29T11:03:27.947Z,13.54
2023-01-29T11:04:24.595Z,13.22
2023-01-29T11:05:27.133Z,12.49
2023-01-29T11:06:29.709Z,13.20
2023-01-29T11:07:32.426Z,13.14
2023-01-29T11:17:15.467Z,13.89
2023-01-29T11:18:18.085Z,13.96
2023-01-29T11:19:21.114Z,13.93
2023-01-29T11:20:24.368Z,15.41
2023-01-29T11:21:26.911Z,14.33
2023-01-29T11:22:29.491Z,14.31
2023-01-29T11:23:32.044Z,12.69
2023-01-29T11:24:34.574Z,13.83
2023-01-29T11:25:37.113Z,14.53
2023-01-29T11:26:40.161Z,13.64
2023-01-29T11:27:42.792Z,13.37
2023-01-29T11:28:45.375Z,13.73
2023-01-29T11:29:48.120Z,12.93
2023-01-29T11:30:51.088Z,14.96
2023-01-29T11:31:53.807Z,12.45
2023-01-29T11:32:56.425Z,12.93
2023-01-29T11:33:58.957Z,13.36
2023-01-29T11:35:01.513Z,13.48
2023-01-29T11:36:04.142Z,13.23
2023-01-29T11:37:06.683Z,13.17
2023-01-29T11:38:09.264Z,11.99
2023-01-29T11:39:11.793Z,14.03
2023-01-29T11:40:15.369Z,14.01
2023-01-29T11:41:19.978Z,14.81
2023-01-29T11:42:22.352Z,14.39
2023-01-29T11:43:25.010Z,14.01
2023-01-29T11:44:27.555Z,12.99
2023-01-29T11:45:30.100Z,14.29
2023-01-29T11:46:32.957Z,14.14
2023-01-29T11:47:35.473Z,13.23
2023-01-29T11:48:38.029Z,11.95
2023-01-29T11:49:40.557Z,11.59
2023-01-29T11:50:43.298Z,13.48
2023-01-29T11:51:45.846Z,12.42
2023-01-29T11:52:48.378Z,13.10
2023-01-29T11:53:50.942Z,12.55
2023-01-29T11:54:53.480Z,12.00
2023-01-29T11:55:56.025Z,12.91
2023-01-29T11:56:58.653Z,12.88
2023-01-29T11:58:01.190Z,12.05
2023-01-29T11:59:03.771Z,11.83
2023-01-29T12:00:06.703Z,12.49
2023-01-29T12:01:09.228Z,11.84
2023-01-29T12:02:11.764Z,12.27
2023-01-29T12:03:14.311Z,13.02
2023-01-29T12:04:16.868Z,12.68
2023-01-29T12:05:19.401Z,12.94
2023-01-29T12:06:22.044Z,13.72
2023-01-29T12:07:24.581Z,13.16
2023-01-29T12:08:27.144Z,12.51
2023-01-29T12:09:29.713Z,16.49
2023-01-29T12:10:32.446Z,15.48
2023-01-29T12:11:34.988Z,14.85
2023-01-29T12:12:37.546Z,13.15
2023-01-29T12:13:40.065Z,13.51
2023-01-29T12:14:42.837Z,13.11
2023-01-29T12:15:45.371Z,15.83
2023-01-29T12:16:48.220Z,15.30
2023-01-29T12:17:50.749Z,13.62
2023-01-29T12:18:53.306Z,14.73
2023-01-29T12:19:56.120Z,14.80
2023-01-29T12:20:58.894Z,14.05
2023-01-29T12:22:03.097Z,14.34
2023-01-29T12:23:05.787Z,15.59
2023-01-29T12:24:08.728Z,15.36
2023-01-29T12:25:11.289Z,14.85
2023-01-29T12:26:14.128Z,15.09
2023-01-29T12:27:16.687Z,14.29
2023-01-29T12:28:19.351Z,15.10
2023-01-29T12:29:21.888Z,13.92
2023-01-29T12:30:24.819Z,14.15
2023-01-29T12:31:27.455Z,14.12
2023-01-29T12:32:30.028Z,13.86
2023-01-29T12:33:32.607Z,12.95
2023-01-29T12:34:35.246Z,13.95
2023-01-29T12:35:40.653Z,12.67
2023-01-29T12:36:45.297Z,13.86
2023-01-29T12:37:47.840Z,12.38
2023-01-29T12:38:50.377Z,14.07
2023-01-29T12:39:52.921Z,13.53
2023-01-29T12:40:56.109Z,14.73
2023-01-29T12:41:58.630Z,16.53
2023-01-29T12:43:01.165Z,14.99
2023-01-29T12:44:03.721Z,15.10
2023-01-29T12:45:06.250Z,15.55
2023-01-29T12:46:09.736Z,13.43
2023-01-29T12:47:12.261Z,17.29
2023-01-29T12:48:14.803Z,15.92
2023-01-29T12:49:17.323Z,14.93
2023-01-29T12:50:20.083Z,15.27
2023-01-29T12:51:22.647Z,15.25
2023-01-29T12:52:25.186Z,14.87
2023-01-29T12:53:29.140Z,14.37
2023-01-29T12:54:31.692Z,16.02
2023-01-29T12:55:34.235Z,14.89
2023-01-29T12:56:37.043Z,16.11
2023-01-29T12:57:39.540Z,15.75
2023-01-29T12:58:42.068Z,14.65
2023-01-29T12:59:44.615Z,14.56
2023-01-29T13:00:47.388Z,16.42
2023-01-29T13:01:50.018Z,16.17
2023-01-29T13:02:52.598Z,15.14
2023-01-29T13:03:55.385Z,17.90
2023-01-29T13:04:57.917Z,15.13
2023-01-29T13:06:00.446Z,16.31
2023-01-29T13:07:03.042Z,15.96
2023-01-29T13:08:05.580Z,16.41
2023-01-29T13:09:08.114Z,17.43
2023-01-29T13:10:11.061Z,16.23
2023-01-29T13:11:13.591Z,15.09
2023-01-29T13:12:16.155Z,15.69
2023-01-29T13:13:18.690Z,13.76
2023-01-29T13:14:21.220Z,15.21
2023-01-29T13:15:23.759Z,14.71
2023-01-29T13:16:26.566Z,15.02
2023-01-29T13:17:29.168Z,15.02
2023-01-29T13:18:31.699Z,15.70
2023-01-29T13:19:34.238Z,15.05
2023-01-29T13:20:36.869Z,14.53
2023-01-29T13:21:39.401Z,15.10
2023-01-29T13:22:41.873Z,14.97
2023-01-29T13:23:44.740Z,15.43
2023-01-29T13:24:58.689Z,15.42
2023-01-29T13:25:51.631Z,16.98
2023-01-29T13:26:54.686Z,16.81
2023-01-29T13:27:57.256Z,16.48
2023-01-29T13:28:59.821Z,16.50
2023-01-29T13:30:02.660Z,17.17
2023-01-29T13:31:05.207Z,16.35
2023-01-29T13:32:07.778Z,15.25
2023-01-29T13:33:12.862Z,12.29
2023-01-29T13:34:17.535Z,15.03
2023-01-29T13:35:20.474Z,16.36
2023-01-29T13:36:23.353Z,15.47
2023-01-29T13:37:26.045Z,14.85
2023-01-29T13:38:28.962Z,15.74
2023-01-29T13:39:31.510Z,15.33
2023-01-29T13:40:34.342Z,16.84
2023-01-29T13:41:36.896Z,16.76
2023-01-29T13:42:39.427Z,15.74
2023-01-29T13:43:41.993Z,16.02
2023-01-29T13:44:44.524Z,16.40